createdAt,value
2023-03-30T00:06:04.686Z,50.84
2023-03-30T00:08:47.546Z,51.43
2023-03-30T00:23:06.365Z,51.43
2023-03-30T00:25:51.722Z,52.27
2023-03-30T00:29:30.179Z,52.82
2023-03-30T00:43:56.209Z,52.62
2023-03-30T00:46:36.053Z,53.08
2023-03-30T00:50:21.945Z,53.50
2023-03-30T00:54:12.880Z,53.68
2023-03-30T00:57:55.104Z,54.10
2023-03-30T01:01:39.562Z,54.35
2023-03-30T01:05:11.951Z,54.86
2023-03-30T01:08:54.340Z,54.93
2023-03-30T01:12:37.814Z,55.09
2023-03-30T01:16:21.017Z,55.06
2023-03-30T01:20:22.596Z,55.47
2023-03-30T01:35:01.777Z,55.67
2023-03-30T01:38:13.599Z,55.88
2023-03-30T01:42:15.285Z,56.46
2023-03-30T01:46:50.979Z,56.95
2023-03-30T01:49:43.854Z,57.27
2023-03-30T01:53:54.650Z,57.54
2023-03-30T01:57:33.503Z,57.73
2023-03-30T02:00:43.729Z,57.83
2023-03-30T02:04:20.097Z,57.67
2023-03-30T02:08:06.046Z,57.59
2023-03-30T02:11:51.390Z,57.90
2023-03-30T02:15:38.740Z,58.16
2023-03-30T02:19:06.534Z,58.14
2023-03-30T02:22:44.795Z,58.59
2023-03-30T02:26:25.451Z,58.76
2023-03-30T02:30:07.800Z,58.82
2023-03-30T02:33:59.247Z,59.11
2023-03-30T02:38:06.483Z,59.30
2023-03-30T02:42:10.857Z,59.74
2023-03-30T02:45:18.468Z,60.19
2023-03-30T02:48:48.967Z,60.18
2023-03-30T02:52:39.716Z,60.11
2023-03-30T02:56:09.123Z,60.31
2023-03-30T03:00:10.738Z,60.36
2023-03-30T03:03:43.441Z,60.88
2023-03-30T03:07:25.171Z,60.70
2023-03-30T03:10:39.112Z,61.10
2023-03-30T03:14:26.639Z,60.92
2023-03-30T03:17:58.672Z,60.94
2023-03-30T03:21:48.196Z,61.38
2023-03-30T03:25:18.169Z,61.48
2023-03-30T03:28:56.238Z,61.66
2023-03-30T03:32:51.796Z,61.65
2023-03-30T03:36:45.337Z,61.94
2023-03-30T03:40:27.486Z,61.75
2023-03-30T03:44:01.679Z,62.31
2023-03-30T03:47:42.598Z,62.56
2023-03-30T03:51:19.651Z,62.76
2023-03-30T03:55:08.392Z,62.79
2023-03-30T03:58:37.960Z,62.93
2023-03-30T04:02:33.997Z,63.18
2023-03-30T04:06:11.489Z,63.32
2023-03-30T04:10:04.499Z,63.32
2023-03-30T04:23:40.537Z,62.63
2023-03-30T04:26:28.596Z,62.97
2023-03-30T04:30:11.610Z,62.85
2023-03-30T04:33:52.126Z,63.14
2023-03-30T04:37:30.184Z,63.08
2023-03-30T04:51:37.783Z,62.16
2023-03-30T04:54:25.704Z,62.12
2023-03-30T04:58:11.384Z,62.64
2023-03-30T05:01:59.131Z,62.46
2023-03-30T05:05:18.296Z,63.12
2023-03-30T05:09:00.937Z,62.52
2023-03-30T05:12:49.874Z,62.71
2023-03-30T05:16:14.833Z,62.49
2023-03-30T05:19:53.742Z,62.52
2023-03-30T05:23:30.706Z,62.55
2023-03-30T05:25:59.924Z,62.39
2023-03-30T05:28:31.091Z,62.35
2023-03-30T05:31:00.673Z,62.25
2023-03-30T05:33:30.140Z,62.30
2023-03-30T05:37:24.783Z,62.30
2023-03-30T05:51:28.139Z,62.12
2023-03-30T06:04:44.823Z,61.43
2023-03-30T06:18:18.194Z,60.79
2023-03-30T06:20:48.704Z,61.00
2023-03-30T06:23:16.082Z,61.37
2023-03-30T06:25:52.215Z,61.11
2023-03-30T06:28:19.806Z,60.82
2023-03-30T06:30:48.394Z,60.72
2023-03-30T06:33:16.138Z,61.28
2023-03-30T06:35:51.682Z,61.28
2023-03-30T06:38:20.847Z,60.79
2023-03-30T06:40:48.246Z,60.27
2023-03-30T06:43:17.456Z,59.78
2023-03-30T06:45:50.456Z,59.48
2023-03-30T06:48:19.506Z,59.04
2023-03-30T06:50:48.272Z,58.58
2023-03-30T06:53:15.468Z,58.78
2023-03-30T06:55:42.325Z,58.06
2023-03-30T06:58:09.219Z,58.34
2023-03-30T07:00:36.682Z,57.95
2023-03-30T07:03:06.027Z,58.03
2023-03-30T07:05:32.876Z,57.93
2023-03-30T07:08:00.198Z,58.43
2023-03-30T07:10:26.670Z,58.13
2023-03-30T07:12:54.595Z,57.64
2023-03-30T07:19:28.125Z,57.46
2023-03-30T07:21:55.549Z,57.67
2023-03-30T07:24:22.058Z,58.29
2023-03-30T07:26:48.632Z,58.39
2023-03-30T07:29:15.366Z,58.04
2023-03-30T07:31:42.121Z,57.78
2023-03-30T07:34:10.230Z,57.76
2023-03-30T07:36:36.937Z,58.08
2023-03-30T07:39:03.689Z,58.43
2023-03-30T07:41:35.374Z,58.88
2023-03-30T07:44:01.947Z,58.59
2023-03-30T07:46:28.867Z,58.64
2023-03-30T07:48:57.123Z,58.98
2023-03-30T07:51:24.799Z,58.54
2023-03-30T07:58:07.095Z,58.24
2023-03-30T08:00:34.197Z,58.20
2023-03-30T08:03:01.645Z,58.05
2023-03-30T08:05:31.435Z,57.81
2023-03-30T08:07:58.274Z,57.61
2023-03-30T08:10:25.302Z,57.76
2023-03-30T08:12:51.869Z,57.32
2023-03-30T08:15:36.239Z,57.24
2023-03-30T08:18:18.915Z,57.54
2023-03-30T08:21:52.889Z,57.30
2023-03-30T08:25:37.229Z,57.70
2023-03-30T08:29:08.534Z,56.69
2023-03-30T08:31:37.728Z,56.75
2023-03-30T08:34:08.108Z,56.70
2023-03-30T08:36:39.768Z,56.76
2023-03-30T08:39:07.887Z,56.94
2023-03-30T08:41:43.878Z,56.82
2023-03-30T08:44:21.355Z,56.35
2023-03-30T08:46:50.823Z,56.24
2023-03-30T08:49:21.135Z,56.94
2023-03-30T08:51:52.344Z,57.48
2023-03-30T08:54:25.902Z,57.67
2023-03-30T08:57:11.798Z,57.55
2023-03-30T09:00:10.663Z,58.32
2023-03-30T09:02:46.455Z,58.75
2023-03-30T09:05:14.488Z,58.40
2023-03-30T09:07:52.896Z,58.52
2023-03-30T09:10:23.195Z,58.72
2023-03-30T09:13:07.483Z,58.58
2023-03-30T09:15:52.625Z,58.71
2023-03-30T09:18:33.479Z,58.45
2023-03-30T09:21:04.317Z,58.75
2023-03-30T09:23:34.368Z,58.45
2023-03-30T09:26:23.809Z,58.61
2023-03-30T09:29:14.597Z,58.98
2023-03-30T09:31:52.205Z,58.90
2023-03-30T09:34:54.677Z,59.34
2023-03-30T09:37:22.767Z,59.23
2023-03-30T09:39:51.038Z,59.34
2023-03-30T09:42:29.061Z,59.07
2023-03-30T09:45:07.918Z,58.74
2023-03-30T09:47:42.463Z,58.16
2023-03-30T09:50:28.997Z,58.03
2023-03-30T09:53:02.496Z,57.78
2023-03-30T09:55:33.034Z,57.54
2023-03-30T09:58:26.681Z,57.46
2023-03-30T10:01:12.785Z,57.50
2023-03-30T10:03:44.008Z,57.95
2023-03-30T10:06:17.359Z,58.25
2023-03-30T10:08:55.088Z,58.13
2023-03-30T10:11:42.503Z,57.02
2023-03-30T10:14:22.325Z,56.08
2023-03-30T10:16:50.267Z,55.00
2023-03-30T10:19:22.447Z,53.74
2023-03-30T10:21:55.144Z,53.41
2023-03-30T10:24:24.750Z,52.65
2023-03-30T10:26:58.075Z,51.39
2023-03-30T10:29:29.088Z,50.41
2023-03-30T10:32:14.716Z,51.38
2023-03-30T10:34:45.612Z,50.62
2023-03-30T10:40:35.658Z,46.17
2023-03-30T11:03:08.619Z,44.28
2023-03-30T11:06:27.962Z,45.73
2023-03-30T11:20:27.676Z,44.77
2023-03-30T11:23:36.731Z,46.62
2023-03-30T11:27:24.359Z,46.96
2023-03-30T11:30:30.018Z,46.63
2023-03-30T11:44:33.138Z,46.52
2023-03-30T11:47:14.151Z,48.46
2023-03-30T11:50:07.627Z,47.80
2023-03-30T11:52:57.068Z,45.78
2023-03-30T11:55:46.049Z,44.32
2023-03-30T11:58:38.311Z,44.71
2023-03-30T12:01:31.006Z,41.94
2023-03-30T12:04:45.465Z,41.08
2023-03-30T12:07:22.876Z,41.31
2023-03-30T12:09:56.415Z,41.50
2023-03-30T12:12:32.973Z,43.33
2023-03-30T12:15:03.850Z,45.37
2023-03-30T12:17:49.362Z,44.47
2023-03-30T12:21:12.184Z,42.07
2023-03-30T12:24:00.623Z,40.13
2023-03-30T12:26:34.889Z,39.38
2023-03-30T12:32:03.226Z,40.83
2023-03-30T12:34:37.785Z,41.51
2023-03-30T12:37:18.358Z,43.04
2023-03-30T12:40:06.741Z,43.41
2023-03-30T12:42:39.736Z,44.51
2023-03-30T12:45:15.417Z,44.86
2023-03-30T12:47:53.501Z,45.87
2023-03-30T12:50:58.457Z,46.84
2023-03-30T12:53:49.245Z,46.85
2023-03-30T12:56:48.508Z,47.12
2023-03-30T12:59:36.584Z,48.62
2023-03-30T13:02:32.347Z,49.73
2023-03-30T13:05:00.652Z,49.32
2023-03-30T13:07:35.134Z,49.28
2023-03-30T13:10:31.960Z,50.25
2023-03-30T13:13:07.300Z,50.29
2023-03-30T13:15:46.834Z,50.61
2023-03-30T13:18:19.508Z,50.82
2023-03-30T13:20:48.217Z,51.05
2023-03-30T13:23:42.307Z,51.79
2023-03-30T13:26:34.915Z,51.59
2023-03-30T13:29:11.487Z,51.64
2023-03-30T13:32:05.285Z,51.66
2023-03-30T13:35:05.443Z,51.67
2023-03-30T13:37:59.129Z,51.98
2023-03-30T13:40:42.016Z,51.64
2023-03-30T13:43:55.223Z,51.91
2023-03-30T13:46:54.079Z,51.81
2023-03-30T14:02:56.659Z,51.64
2023-03-30T14:06:13.873Z,51.58
2023-03-30T14:08:50.474Z,51.18
2023-03-30T14:11:38.602Z,51.21
2023-03-30T14:14:06.161Z,50.93
2023-03-30T14:16:39.999Z,50.79
2023-03-30T14:19:27.996Z,51.11
2023-03-30T14:22:23.325Z,51.91
2023-03-30T14:26:01.600Z,52.76
2023-03-30T14:28:35.156Z,52.86
2023-03-30T14:31:18.231Z,52.91
2023-03-30T14:33:46.848Z,52.97
2023-03-30T14:36:18.351Z,53.02
2023-03-30T14:38:49.660Z,52.79
2023-03-30T14:41:24.330Z,53.32
2023-03-30T14:44:06.692Z,53.76
2023-03-30T14:46:49.818Z,54.65
2023-03-30T14:49:22.419Z,54.92
2023-03-30T14:51:53.027Z,54.90
2023-03-30T14:54:23.393Z,55.68
2023-03-30T14:57:12.228Z,55.99
2023-03-30T14:59:53.600Z,56.59
2023-03-30T15:02:26.333Z,56.63
2023-03-30T15:05:05.392Z,56.57
2023-03-30T15:07:36.874Z,56.98
2023-03-30T15:10:20.994Z,57.16
2023-03-30T15:17:22.002Z,58.73
2023-03-30T15:19:55.154Z,60.22
2023-03-30T15:22:29.451Z,61.77
2023-03-30T15:25:01.172Z,62.19
2023-03-30T15:27:30.869Z,62.43
2023-03-30T15:30:01.240Z,63.64
2023-03-30T15:32:36.316Z,64.24
2023-03-30T15:35:19.399Z,65.17
2023-03-30T15:37:55.166Z,65.62
2023-03-30T15:40:32.702Z,66.78
2023-03-30T15:43:16.371Z,66.58
2023-03-30T15:45:54.026Z,67.20
2023-03-30T15:48:28.904Z,67.20
2023-03-30T15:51:13.437Z,67.45
2023-03-30T15:53:47.078Z,66.86
2023-03-30T15:56:25.384Z,67.87
2023-03-30T15:58:54.050Z,67.72
2023-03-30T16:01:23.386Z,67.83
2023-03-30T16:04:06.536Z,67.99
2023-03-30T16:06:37.364Z,67.70
2023-03-30T16:09:05.207Z,68.04
2023-03-30T16:11:33.317Z,67.72
2023-03-30T16:14:01.799Z,67.84
2023-03-30T16:16:29.890Z,68.21
2023-03-30T16:18:57.898Z,68.27
2023-03-30T16:23:14.112Z,67.79
2023-03-30T16:25:45.238Z,68.12
2023-03-30T16:28:17.959Z,67.82
2023-03-30T16:30:50.315Z,67.85
2023-03-30T16:33:21.243Z,68.07
2023-03-30T16:35:50.575Z,67.98
2023-03-30T16:38:25.795Z,67.64
2023-03-30T16:40:57.557Z,67.69
2023-03-30T16:43:27.398Z,67.45
2023-03-30T16:45:55.445Z,67.34
2023-03-30T16:48:24.845Z,67.87
2023-03-30T16:50:58.845Z,67.78
2023-03-30T16:53:26.810Z,67.49
2023-03-30T16:57:27.856Z,67.92
2023-03-30T16:59:56.392Z,68.21
2023-03-30T17:02:27.011Z,67.77
2023-03-30T17:04:56.740Z,67.37
2023-03-30T17:07:26.685Z,67.34
2023-03-30T17:11:21.169Z,67.31
2023-03-30T17:13:51.410Z,67.39
2023-03-30T17:16:19.512Z,67.40
2023-03-30T17:18:51.568Z,67.05
2023-03-30T17:21:19.717Z,66.86
2023-03-30T17:23:48.476Z,66.77
2023-03-30T17:26:18.919Z,66.40
2023-03-30T17:28:49.057Z,66.48
2023-03-30T17:31:19.770Z,66.37
2023-03-30T17:34:00.318Z,66.47
2023-03-30T17:37:55.474Z,67.02
2023-03-30T17:40:28.812Z,67.48
2023-03-30T17:42:57.083Z,67.42
2023-03-30T17:45:27.136Z,67.49
2023-03-30T17:47:55.176Z,67.47
2023-03-30T17:50:29.518Z,67.60
2023-03-30T17:52:58.872Z,67.69
2023-03-30T17:55:29.280Z,67.72
2023-03-30T17:57:58.491Z,67.69
2023-03-30T18:00:34.258Z,67.84
2023-03-30T18:03:03.614Z,67.74
2023-03-30T18:05:32.603Z,67.63
2023-03-30T18:08:00.648Z,67.68
2023-03-30T18:10:40.087Z,67.87
2023-03-30T18:13:08.237Z,67.95
2023-03-30T18:15:36.112Z,68.58
2023-03-30T18:18:04.146Z,68.16
2023-03-30T18:20:44.309Z,68.85
2023-03-30T18:23:15.363Z,68.84
2023-03-30T18:25:46.193Z,68.77
2023-03-30T18:28:22.963Z,69.61
2023-03-30T18:30:57.540Z,71.39
2023-03-30T18:33:27.442Z,72.46
2023-03-30T18:36:05.113Z,72.87
2023-03-30T18:38:34.126Z,73.20
2023-03-30T18:41:05.291Z,73.68
2023-03-30T18:49:53.538Z,77.73
2023-03-30T18:52:23.629Z,78.22
2023-03-30T18:54:51.660Z,78.17
2023-03-30T18:57:19.912Z,78.20
2023-03-30T18:59:48.304Z,78.62
2023-03-30T19:02:16.603Z,78.50
2023-03-30T19:04:45.123Z,78.48
2023-03-30T19:07:13.219Z,78.66
2023-03-30T19:09:43.391Z,79.32
2023-03-30T19:12:13.050Z,79.83
2023-03-30T19:14:41.122Z,80.67
2023-03-30T19:17:09.374Z,81.56
2023-03-30T19:19:37.405Z,81.97
2023-03-30T19:22:05.792Z,82.62
2023-03-30T19:24:36.686Z,82.27
2023-03-30T19:27:08.026Z,82.11
2023-03-30T19:29:39.752Z,82.20
2023-03-30T19:32:07.887Z,82.01
2023-03-30T19:34:41.051Z,81.59
2023-03-30T19:37:09.109Z,81.30
2023-03-30T19:39:39.281Z,81.22
2023-03-30T19:42:37.930Z,81.18
2023-03-30T19:45:12.708Z,81.28
2023-03-30T19:47:51.611Z,81.33
2023-03-30T19:50:23.418Z,81.34
2023-03-30T19:52:52.093Z,81.19
2023-03-30T19:55:22.650Z,81.48
2023-03-30T19:57:52.244Z,81.94
2023-03-30T20:00:23.489Z,82.19
2023-03-30T20:02:54.076Z,83.15
2023-03-30T20:05:23.977Z,83.80
2023-03-30T20:07:52.048Z,85.00
2023-03-30T20:10:23.168Z,86.96
2023-03-30T20:12:51.962Z,89.41
2023-03-30T20:15:22.379Z,90.03
2023-03-30T20:17:50.472Z,90.35
2023-03-30T20:20:25.688Z,90.58
2023-03-30T20:22:56.499Z,90.83
2023-03-30T20:25:25.004Z,91.37
2023-03-30T20:27:56.008Z,91.54
2023-03-30T20:30:24.054Z,92.29
2023-03-30T20:33:07.289Z,92.70
2023-03-30T20:35:38.074Z,92.92
2023-03-30T20:38:09.844Z,93.08
2023-03-30T20:40:37.723Z,93.18
2023-03-30T20:43:10.819Z,93.30
2023-03-30T20:45:48.761Z,94.16
2023-03-30T20:58:14.547Z,97.61
2023-03-30T21:00:42.516Z,98.44
2023-03-30T21:03:11.023Z,99.34
2023-03-30T21:05:39.057Z,99.96
2023-03-30T21:08:15.402Z,100.00
2023-03-30T21:10:43.370Z,100.00
2023-03-30T21:13:11.412Z,100.00
2023-03-30T21:15:40.663Z,100.00
2023-03-30T21:18:08.630Z,100.00
2023-03-30T21:20:36.638Z,100.00
2023-03-30T21:23:04.573Z,100.00
2023-03-30T21:25:32.418Z,100.00
2023-03-30T21:28:00.651Z,100.00
2023-03-30T21:30:29.006Z,100.00
2023-03-30T21:32:57.045Z,100.00
2023-03-30T21:35:25.237Z,100.00
2023-03-30T21:37:53.205Z,100.00
2023-03-30T21:40:21.448Z,100.00
2023-03-30T21:42:49.247Z,100.00
2023-03-30T21:45:17.924Z,100.00
2023-03-30T21:47:45.995Z,100.00
2023-03-30T21:50:14.072Z,100.00
2023-03-30T21:52:41.988Z,100.00
2023-03-30T21:55:09.933Z,100.00
2023-03-30T21:57:37.708Z,100.00
2023-03-30T22:00:10.236Z,100.00
2023-03-30T22:02:38.441Z,100.00
2023-03-30T22:05:06.943Z,100.00
2023-03-30T22:07:34.983Z,100.00
2023-03-30T22:10:06.761Z,100.00
2023-03-30T22:12:34.983Z,100.00
2023-03-30T22:15:04.085Z,100.00
2023-03-30T22:17:41.736Z,100.00
2023-03-30T22:20:11.875Z,100.00
2023-03-30T22:22:39.912Z,100.00
2023-03-30T22:25:08.169Z,100.00
2023-03-30T22:27:36.243Z,100.00
2023-03-30T22:30:05.450Z,100.00
2023-03-30T22:32:34.181Z,100.00
2023-03-30T22:35:05.216Z,100.00
2023-03-30T22:37:33.293Z,100.00
2023-03-30T22:40:03.493Z,100.00
2023-03-30T22:42:31.375Z,100.00
2023-03-30T22:44:59.314Z,100.00
2023-03-30T22:47:27.208Z,100.00
2023-03-30T22:49:55.101Z,100.00
2023-03-30T22:52:23.052Z,100.00
2023-03-30T22:54:51.030Z,100.00
2023-03-30T22:57:18.824Z,100.00
2023-03-30T22:59:46.700Z,100.00
2023-03-30T23:02:14.502Z,100.00
2023-03-30T23:04:44.176Z,100.00
2023-03-30T23:07:12.069Z,100.00
2023-03-30T23:09:40.151Z,100.00
2023-03-30T23:12:08.516Z,100.00
2023-03-30T23:17:53.684Z,100.00
2023-03-30T23:20:21.524Z,100.00
2023-03-30T23:22:50.756Z,100.00
2023-03-30T23:25:18.644Z,100.00
2023-03-30T23:27:46.874Z,100.00
2023-03-30T23:30:14.899Z,100.00
2023-03-30T23:32:42.766Z,100.00
2023-03-30T23:35:10.722Z,100.00
2023-03-30T23:37:38.692Z,100.00
2023-03-30T23:40:08.060Z,100.00
2023-03-30T23:42:36.113Z,100.00
2023-03-30T23:45:04.282Z,100.00
2023-03-30T23:47:32.364Z,100.00
2023-03-30T23:50:01.047Z,100.00
2023-03-30T23:52:30.872Z,100.00
2023-03-30T23:55:02.827Z,100.00
2023-03-30T23:57:30.818Z,100.00
2023-03-30T23:59:58.811Z,100.00
